Time;durP1;ratioP1;P1;durP2;ratioP2;P2;SDS_P1;SDS_P2;PMS_P1;PMS_P2;Temp;Humidity;BMP_temperature;BMP_pressure;BME280_temperature;BME280_humidity;BME280_pressure;Samples;Min_cycle;Max_cycle;Signal;HPM_P1;HPM_P2
2023/06/03 00:02:07;;;;;;;25.45;15.45;;;16.60;99.90;;;;;;5073212;28;20081;-61
2023/06/03 00:04:41;;;;;;;28.48;16.92;;;16.60;99.90;;;;;;5069266;28;20105;-61
2023/06/03 00:07:08;;;;;;;27.67;16.00;;;16.60;99.90;;;;;;5053637;28;20036;-59
2023/06/03 00:09:36;;;;;;;35.92;17.08;;;16.60;99.90;;;;;;5079586;28;20052;-59
2023/06/03 00:12:04;;;;;;;31.23;16.33;;;16.70;99.90;;;;;;5054047;28;20480;-60
2023/06/03 00:14:31;;;;;;;30.80;15.88;;;16.60;99.90;;;;;;5080771;28;20024;-64
2023/06/03 00:16:59;;;;;;;29.88;16.55;;;16.70;99.90;;;;;;5072331;28;20090;-59
2023/06/03 00:19:26;;;;;;;32.30;17.80;;;16.90;99.90;;;;;;5086752;28;20024;-60
2023/06/03 00:21:54;;;;;;;29.00;16.08;;;17.00;99.90;;;;;;5054571;28;20374;-59
2023/06/03 00:24:24;;;;;;;28.17;13.88;;;17.30;99.90;;;;;;5069899;28;20036;-59
2023/06/03 00:26:52;;;;;;;22.42;12.82;;;17.40;99.90;;;;;;5068936;28;20474;-60
2023/06/03 00:29:20;;;;;;;26.13;14.90;;;17.70;99.90;;;;;;5077652;28;20218;-60
2023/06/03 00:31:48;;;;;;;24.50;12.65;;;17.70;99.90;;;;;;5069363;28;20066;-60
2023/06/03 00:34:16;;;;;;;19.88;12.05;;;17.60;99.90;;;;;;5076585;28;21204;-60
2023/06/03 00:36:43;;;;;;;22.98;13.13;;;17.60;99.90;;;;;;5070161;28;20028;-60
2023/06/03 00:39:11;;;;;;;24.52;13.88;;;17.40;99.90;;;;;;5073044;28;20544;-60
2023/06/03 00:41:39;;;;;;;26.83;13.27;;;17.40;99.90;;;;;;5075766;28;20028;-60
2023/06/03 00:44:06;;;;;;;26.98;15.00;;;17.30;99.90;;;;;;5074105;28;20032;-60
2023/06/03 00:46:35;;;;;;;27.92;14.88;;;17.20;99.90;;;;;;5075639;28;20036;-61
2023/06/03 00:49:03;;;;;;;24.92;14.68;;;17.10;99.90;;;;;;5082734;28;20020;-60
2023/06/03 00:51:35;;;;;;;21.35;13.48;;;16.90;99.90;;;;;;5083763;28;20139;-60
2023/06/03 00:54:03;;;;;;;32.00;15.07;;;17.00;99.90;;;;;;5069035;28;20098;-61
2023/06/03 00:56:37;;;;;;;23.73;14.23;;;16.90;99.90;;;;;;5053592;28;20046;-60
2023/06/03 00:59:04;;;;;;;26.75;15.27;;;16.90;99.90;;;;;;5076183;28;20031;-61
2023/06/03 01:01:35;;;;;;;24.05;13.10;;;17.00;99.90;;;;;;5079312;28;20101;-60
2023/06/03 01:04:05;;;;;;;24.98;12.20;;;17.10;99.90;;;;;;5081053;28;20060;-64
2023/06/03 01:06:45;;;;;;;23.00;12.90;;;17.20;99.90;;;;;;5067407;28;20381;-60
2023/06/03 01:09:19;;;;;;;22.13;12.00;;;17.20;99.90;;;;;;5072889;28;20032;-56
2023/06/03 01:12:19;;;;;;;16.30;9.85;;;17.20;99.90;;;;;;5072486;28;20085;-55
2023/06/03 01:14:52;;;;;;;22.13;12.13;;;17.30;99.90;;;;;;5057515;28;20029;-53
2023/06/03 01:17:24;;;;;;;19.17;10.75;;;17.30;99.90;;;;;;5075217;28;20021;-50
2023/06/03 01:19:53;;;;;;;20.92;12.18;;;17.40;99.90;;;;;;5077985;28;20070;-49
2023/06/03 01:22:24;;;;;;;18.98;10.80;;;17.60;99.90;;;;;;5087164;28;20047;-53
2023/06/03 01:25:01;;;;;;;23.63;11.07;;;17.60;99.90;;;;;;5081367;28;20086;-52
2023/06/03 01:27:29;;;;;;;16.10;9.77;;;17.80;99.90;;;;;;5074488;28;20070;-50
2023/06/03 01:29:57;;;;;;;14.75;8.93;;;17.90;99.90;;;;;;5082844;28;20028;-53
2023/06/03 01:32:24;;;;;;;17.38;8.25;;;18.10;99.90;;;;;;5060413;28;20057;-57
2023/06/03 01:34:52;;;;;;;15.00;8.65;;;18.20;99.90;;;;;;5078712;28;20032;-54
2023/06/03 01:37:21;;;;;;;17.48;8.25;;;18.30;99.90;;;;;;5074929;28;20074;-53
2023/06/03 01:39:49;;;;;;;14.43;9.00;;;18.40;99.90;;;;;;5054619;28;20032;-53
2023/06/03 01:42:17;;;;;;;16.60;9.25;;;18.50;99.90;;;;;;5072560;28;20024;-55
2023/06/03 01:44:45;;;;;;;16.02;9.73;;;18.60;99.90;;;;;;5071878;28;20127;-50
2023/06/03 01:47:12;;;;;;;17.42;8.60;;;18.70;99.90;;;;;;5077298;28;20086;-63
2023/06/03 01:49:40;;;;;;;14.27;7.93;;;18.80;99.90;;;;;;5071640;28;20035;-59
2023/06/03 01:52:07;;;;;;;13.75;7.63;;;18.80;99.90;;;;;;5084410;28;20028;-60
2023/06/03 01:54:35;;;;;;;19.30;9.05;;;18.90;99.90;;;;;;5082560;28;20108;-61
2023/06/03 01:57:03;;;;;;;15.32;7.22;;;19.10;99.90;;;;;;5085716;28;20028;-60
2023/06/03 01:59:31;;;;;;;18.90;8.60;;;19.10;99.90;;;;;;5088439;28;20107;-59
2023/06/03 02:02:00;;;;;;;13.77;8.07;;;19.30;99.90;;;;;;5082646;28;20092;-59
2023/06/03 02:04:28;;;;;;;13.93;7.47;;;19.30;99.90;;;;;;5079546;28;20031;-59
2023/06/03 02:07:00;;;;;;;14.00;7.13;;;19.40;99.90;;;;;;5072378;28;20103;-59
2023/06/03 02:09:28;;;;;;;12.75;6.38;;;19.50;99.90;;;;;;5077545;28;20423;-63
2023/06/03 02:12:01;;;;;;;13.27;5.82;;;19.70;99.90;;;;;;5066317;28;20071;-62
2023/06/03 02:14:31;;;;;;;18.58;7.22;;;19.80;99.90;;;;;;5087317;28;20062;-64
2023/06/03 02:16:59;;;;;;;12.68;6.78;;;20.00;99.90;;;;;;5088685;28;20127;-61
2023/06/03 02:19:28;;;;;;;13.13;5.40;;;20.20;99.90;;;;;;5081129;28;20550;-63
2023/06/03 02:21:57;;;;;;;17.02;5.53;;;20.30;99.90;;;;;;5057841;28;20040;-63
2023/06/03 02:24:28;;;;;;;18.58;5.97;;;20.40;99.90;;;;;;5083888;28;20634;-64
2023/06/03 02:27:00;;;;;;;11.07;5.13;;;20.50;99.90;;;;;;5071655;28;20563;-63
2023/06/03 02:29:29;;;;;;;9.38;5.63;;;20.50;99.90;;;;;;5072415;28;20055;-62
2023/06/03 02:31:58;;;;;;;9.57;5.47;;;20.60;99.90;;;;;;5081514;28;20023;-63
2023/06/03 02:34:25;;;;;;;14.45;5.53;;;20.70;99.90;;;;;;5075851;28;20698;-63
2023/06/03 02:36:53;;;;;;;12.95;6.68;;;20.60;99.90;;;;;;5072868;28;20035;-62
2023/06/03 02:39:21;;;;;;;13.32;6.22;;;20.60;99.90;;;;;;5075459;28;20024;-63
2023/06/03 02:41:48;;;;;;;13.43;6.18;;;20.60;99.90;;;;;;5079078;28;20035;-62
2023/06/03 02:44:17;;;;;;;11.60;6.07;;;20.60;99.90;;;;;;5096535;28;20039;-62
2023/06/03 02:46:45;;;;;;;24.45;6.40;;;20.80;99.90;;;;;;5080237;28;20534;-62
2023/06/03 02:49:14;;;;;;;13.45;4.57;;;20.90;99.90;;;;;;5077331;28;20393;-64
2023/06/03 02:51:42;;;;;;;7.72;3.55;;;21.10;99.90;;;;;;5078413;28;20024;-64
2023/06/03 02:54:10;;;;;;;10.95;4.95;;;21.30;99.90;;;;;;5075229;28;20046;-63
2023/06/03 02:56:37;;;;;;;9.20;3.88;;;21.50;99.90;;;;;;5073215;28;20028;-63
2023/06/03 02:59:05;;;;;;;7.35;3.45;;;21.50;99.90;;;;;;5077125;28;20047;-62
2023/06/03 03:01:33;;;;;;;7.43;3.55;;;21.40;99.90;;;;;;5074156;28;20059;-61
2023/06/03 03:04:03;;;;;;;8.40;3.75;;;21.40;99.90;;;;;;5086419;28;20028;-62
2023/06/03 03:06:31;;;;;;;6.75;4.50;;;21.40;99.90;;;;;;5078676;28;20501;-62
2023/06/03 03:08:58;;;;;;;8.93;4.75;;;21.40;99.90;;;;;;5075284;28;20456;-61
2023/06/03 03:11:27;;;;;;;8.15;3.83;;;21.60;99.90;;;;;;5076657;28;20071;-62
2023/06/03 03:13:55;;;;;;;10.50;5.00;;;21.70;99.90;;;;;;5074337;28;20056;-62
2023/06/03 03:16:23;;;;;;;7.75;3.45;;;21.80;99.90;;;;;;5081169;28;20030;-62
2023/06/03 03:18:51;;;;;;;7.60;4.07;;;22.00;99.90;;;;;;5081323;28;20044;-63
2023/06/03 03:21:18;;;;;;;7.13;3.35;;;22.10;99.90;;;;;;5089296;28;20024;-63
2023/06/03 03:23:46;;;;;;;8.00;3.58;;;22.20;99.90;;;;;;5077987;28;20040;-61
2023/06/03 03:26:15;;;;;;;6.15;3.20;;;22.20;99.90;;;;;;5073050;28;20035;-62
2023/06/03 03:28:42;;;;;;;8.90;3.72;;;22.20;99.90;;;;;;5072636;28;20531;-61
2023/06/03 03:31:12;;;;;;;5.93;3.17;;;22.30;99.90;;;;;;5073932;28;20024;-62
2023/06/03 03:33:39;;;;;;;9.30;3.58;;;22.30;99.90;;;;;;5076914;28;20034;-62
2023/06/03 03:36:12;;;;;;;7.10;3.58;;;22.40;99.90;;;;;;5074799;28;20028;-62
2023/06/03 03:38:39;;;;;;;9.88;3.60;;;22.50;99.90;;;;;;5055874;28;20052;-62
2023/06/03 03:41:07;;;;;;;6.95;3.25;;;22.50;99.90;;;;;;5074971;28;20063;-62
2023/06/03 03:43:35;;;;;;;10.15;4.47;;;22.60;99.90;;;;;;5088641;28;20404;-62
2023/06/03 03:46:02;;;;;;;7.70;3.80;;;22.60;99.90;;;;;;5090130;28;20383;-61
2023/06/03 03:48:31;;;;;;;6.22;3.28;;;22.60;99.90;;;;;;5079246;28;20030;-61
2023/06/03 03:50:58;;;;;;;6.25;3.22;;;22.60;99.90;;;;;;5078021;28;20039;-61
2023/06/03 03:53:34;;;;;;;4.80;2.50;;;22.60;99.90;;;;;;5078574;28;20455;-61
2023/06/03 03:56:02;;;;;;;5.72;2.80;;;22.60;99.90;;;;;;5076141;28;20012;-61
2023/06/03 03:58:40;;;;;;;5.97;3.30;;;22.60;99.90;;;;;;5073700;28;20021;-61
2023/06/03 04:01:24;;;;;;;8.32;3.40;;;22.60;99.90;;;;;;5069590;28;20086;-61
2023/06/03 04:03:55;;;;;;;5.10;3.20;;;22.50;99.90;;;;;;5076340;28;20031;-59
2023/06/03 04:06:32;;;;;;;8.43;4.20;;;22.50;99.90;;;;;;5081339;28;20265;-56
2023/06/03 04:09:01;;;;;;;7.35;3.80;;;22.60;99.90;;;;;;5084573;28;20077;-57
2023/06/03 04:11:36;;;;;;;8.05;3.58;;;22.60;99.90;;;;;;5070962;28;20028;-57
2023/06/03 04:14:06;;;;;;;8.02;3.72;;;22.60;99.90;;;;;;5068011;28;20115;-57
2023/06/03 04:16:54;;;;;;;7.30;4.07;;;22.50;99.90;;;;;;5091988;28;20024;-58
2023/06/03 04:19:50;;;;;;;9.63;3.42;;;22.50;99.90;;;;;;5075681;28;20055;-57
2023/06/03 04:22:23;;;;;;;8.25;4.35;;;22.40;99.90;;;;;;5063940;28;20579;-55
2023/06/03 04:25:01;;;;;;;10.30;3.75;;;22.40;99.90;;;;;;5076607;28;20032;-57
2023/06/03 04:27:29;;;;;;;7.32;2.88;;;22.50;99.90;;;;;;5070221;28;20031;-55
2023/06/03 04:29:56;;;;;;;5.47;3.22;;;22.50;99.90;;;;;;5081625;28;20377;-57
2023/06/03 04:32:24;;;;;;;8.48;2.78;;;22.60;99.90;;;;;;5070544;28;20107;-58
2023/06/03 04:34:55;;;;;;;5.53;2.60;;;22.50;99.90;;;;;;5078359;28;20016;-54
2023/06/03 04:37:23;;;;;;;6.55;2.38;;;22.60;99.90;;;;;;5079452;28;20562;-53
2023/06/03 04:39:51;;;;;;;6.60;2.35;;;22.60;99.90;;;;;;5083848;28;20488;-56
2023/06/03 04:42:18;;;;;;;4.13;1.88;;;22.60;99.90;;;;;;5077127;28;20033;-55
2023/06/03 04:44:48;;;;;;;5.28;2.00;;;22.70;99.90;;;;;;5072456;28;20033;-57
2023/06/03 04:47:17;;;;;;;9.10;2.45;;;22.60;99.90;;;;;;5086900;28;20016;-55
2023/06/03 04:49:47;;;;;;;5.18;2.05;;;22.60;99.90;;;;;;5088713;28;20040;-55
2023/06/03 04:52:15;;;;;;;4.70;2.03;;;22.60;99.90;;;;;;5054278;28;20107;-56
2023/06/03 04:54:43;;;;;;;6.38;3.05;;;22.60;99.90;;;;;;5077712;28;20032;-56
2023/06/03 04:57:10;;;;;;;5.50;3.08;;;22.50;99.90;;;;;;5092614;28;20013;-56
2023/06/03 04:59:38;;;;;;;4.30;2.22;;;22.50;99.90;;;;;;5072054;28;20636;-54
2023/06/03 05:02:08;;;;;;;5.07;2.70;;;22.40;99.90;;;;;;5071235;28;20021;-55
2023/06/03 05:04:37;;;;;;;8.93;2.67;;;22.40;99.90;;;;;;5073420;28;20040;-64
2023/06/03 05:07:05;;;;;;;4.55;2.70;;;22.40;99.90;;;;;;5078191;28;20020;-55
2023/06/03 05:09:33;;;;;;;9.10;3.92;;;22.50;99.90;;;;;;5077721;28;20112;-57
2023/06/03 05:12:00;;;;;;;7.72;3.38;;;22.60;99.90;;;;;;5074066;28;20020;-55
2023/06/03 05:14:28;;;;;;;6.00;3.78;;;22.60;99.90;;;;;;5072610;28;20036;-56
2023/06/03 05:16:55;;;;;;;9.80;3.40;;;22.60;99.90;;;;;;5077089;28;20099;-56
2023/06/03 05:19:23;;;;;;;5.85;2.67;;;22.60;99.90;;;;;;5075102;28;20071;-55
2023/06/03 05:21:51;;;;;;;6.32;2.83;;;22.60;99.90;;;;;;5071347;28;20036;-56
2023/06/03 05:24:18;;;;;;;6.60;2.55;;;22.50;99.90;;;;;;5071596;28;20028;-56
2023/06/03 05:26:45;;;;;;;7.03;2.83;;;22.40;99.90;;;;;;5062260;28;20028;-57
2023/06/03 05:29:13;;;;;;;5.43;2.58;;;22.30;99.90;;;;;;5069613;28;20043;-57
2023/06/03 05:31:40;;;;;;;7.10;2.88;;;22.20;99.90;;;;;;5069487;28;20062;-55
2023/06/03 05:34:10;;;;;;;5.03;2.28;;;22.20;99.90;;;;;;5073316;28;20111;-56
2023/06/03 05:36:37;;;;;;;5.45;2.25;;;22.10;99.90;;;;;;5084999;28;20099;-56
2023/06/03 05:39:05;;;;;;;5.15;2.72;;;22.10;99.90;;;;;;5083378;28;20484;-55
2023/06/03 05:41:33;;;;;;;7.13;2.22;;;22.00;99.90;;;;;;5076025;28;20127;-52
2023/06/03 05:44:01;;;;;;;15.00;2.70;;;22.00;99.90;;;;;;5075247;28;20054;-56
2023/06/03 05:46:28;;;;;;;6.63;2.17;;;22.00;99.90;;;;;;5074254;28;20540;-53
2023/06/03 05:48:55;;;;;;;6.03;2.53;;;22.00;99.90;;;;;;5081663;28;20537;-56
2023/06/03 05:51:23;;;;;;;7.38;3.10;;;22.00;99.90;;;;;;5078000;28;20445;-55
2023/06/03 05:53:50;;;;;;;5.82;3.30;;;21.90;99.90;;;;;;5070049;28;20060;-54
2023/06/03 05:56:18;;;;;;;6.55;2.42;;;21.80;99.90;;;;;;5070635;28;20016;-54
2023/06/03 05:58:45;;;;;;;7.15;3.05;;;21.60;99.90;;;;;;5052820;28;20036;-55
2023/06/03 06:01:13;;;;;;;5.30;2.65;;;21.40;99.90;;;;;;5052683;28;20028;-56
2023/06/03 06:03:41;;;;;;;7.07;2.55;;;21.30;99.90;;;;;;5070682;28;20037;-53
2023/06/03 06:06:09;;;;;;;8.23;2.40;;;21.10;99.90;;;;;;5074374;28;20016;-52
2023/06/03 06:08:37;;;;;;;8.30;2.55;;;21.00;99.90;;;;;;5082002;28;20020;-55
2023/06/03 06:11:04;;;;;;;6.22;2.60;;;20.90;99.90;;;;;;5071075;28;20032;-54
2023/06/03 06:13:32;;;;;;;7.93;2.40;;;20.80;99.90;;;;;;5090525;28;20039;-53
2023/06/03 06:16:02;;;;;;;7.13;2.25;;;20.70;99.90;;;;;;5088811;28;20477;-54
2023/06/03 06:18:32;;;;;;;11.48;2.63;;;20.70;99.90;;;;;;5082068;28;20032;-51
2023/06/03 06:21:00;;;;;;;7.75;2.50;;;20.60;99.90;;;;;;5055835;28;20381;-55
2023/06/03 06:23:28;;;;;;;5.65;2.50;;;20.50;99.90;;;;;;5073533;28;20036;-54
2023/06/03 06:25:56;;;;;;;4.53;2.20;;;20.40;99.90;;;;;;5082881;28;20048;-54
2023/06/03 06:28:26;;;;;;;10.25;4.18;;;20.30;99.90;;;;;;5090492;28;20054;-54
2023/06/03 06:30:56;;;;;;;13.13;7.38;;;20.20;99.90;;;;;;5070716;28;20410;-54
2023/06/03 06:33:24;;;;;;;21.45;12.27;;;20.10;99.90;;;;;;5052193;28;20098;-53
2023/06/03 06:35:51;;;;;;;23.50;13.32;;;19.90;99.90;;;;;;5070126;28;20013;-52
2023/06/03 06:38:19;;;;;;;26.85;15.98;;;19.80;99.90;;;;;;5070667;28;20032;-54
2023/06/03 06:40:48;;;;;;;22.30;13.82;;;19.60;99.90;;;;;;5083449;28;20020;-51
2023/06/03 06:43:18;;;;;;;19.92;9.88;;;19.50;99.90;;;;;;5110501;28;20034;-50
2023/06/03 06:45:46;;;;;;;16.10;7.65;;;19.30;99.90;;;;;;5110647;28;20077;-54
2023/06/03 06:48:14;;;;;;;13.90;7.53;;;19.20;99.90;;;;;;5110438;28;20023;-54
2023/06/03 06:50:58;;;;;;;18.30;9.40;;;19.10;99.90;;;;;;5110465;28;20073;-55
2023/06/03 06:53:28;;;;;;;17.58;9.57;;;19.00;99.90;;;;;;5103701;28;20083;-53
2023/06/03 06:56:09;;;;;;;22.98;11.90;;;19.00;99.90;;;;;;5069411;28;20036;-53
2023/06/03 06:58:38;;;;;;;19.00;11.00;;;18.90;99.90;;;;;;5077979;28;20044;-63
2023/06/03 07:01:06;;;;;;;20.52;12.35;;;18.80;99.90;;;;;;5082481;28;20035;-53
2023/06/03 07:03:35;;;;;;;20.40;10.80;;;18.70;99.90;;;;;;5087110;28;20032;-53
2023/06/03 07:06:02;;;;;;;15.43;8.15;;;18.60;99.90;;;;;;5073316;28;20484;-60
2023/06/03 07:08:30;;;;;;;15.90;8.65;;;18.60;99.90;;;;;;5072740;28;20082;-58
2023/06/03 07:11:01;;;;;;;16.02;9.60;;;18.50;99.90;;;;;;5069735;28;20431;-59
2023/06/03 07:13:28;;;;;;;19.17;11.23;;;18.50;99.90;;;;;;5087472;28;20036;-59
2023/06/03 07:16:00;;;;;;;17.73;9.40;;;18.40;99.90;;;;;;5089687;28;20430;-59
2023/06/03 07:18:27;;;;;;;15.75;8.85;;;18.40;99.90;;;;;;5089519;28;20020;-58
2023/06/03 07:20:55;;;;;;;17.05;8.52;;;18.30;99.90;;;;;;5071411;28;20043;-58
2023/06/03 07:23:26;;;;;;;18.83;9.77;;;18.20;99.90;;;;;;5089322;28;20028;-59
2023/06/03 07:25:55;;;;;;;21.90;8.90;;;18.10;99.90;;;;;;5071310;28;20561;-59
2023/06/03 07:28:46;;;;;;;15.32;7.70;;;18.10;99.90;;;;;;5089414;28;20031;-59
2023/06/03 07:31:14;;;;;;;22.52;7.80;;;18.00;99.90;;;;;;5080936;28;20366;-58
2023/06/03 07:33:51;;;;;;;12.48;7.18;;;17.90;99.90;;;;;;5070292;28;20055;-58
2023/06/03 07:36:20;;;;;;;10.82;5.38;;;17.80;99.90;;;;;;5078491;28;20068;-59
2023/06/03 07:39:00;;;;;;;9.75;4.43;;;17.70;99.90;;;;;;5076980;28;20059;-58
2023/06/03 07:41:38;;;;;;;8.35;3.33;;;17.60;99.90;;;;;;5071413;28;20020;-58
2023/06/03 07:44:13;;;;;;;8.07;3.25;;;17.60;99.90;;;;;;5059096;28;20067;-58
2023/06/03 07:46:53;;;;;;;8.60;2.70;;;17.60;99.90;;;;;;5082187;28;20020;-57
2023/06/03 07:49:22;;;;;;;5.05;2.30;;;17.60;99.90;;;;;;5073886;28;20551;-59
2023/06/03 07:51:50;;;;;;;5.85;1.90;;;17.70;99.90;;;;;;5064328;28;20035;-61
2023/06/03 07:54:19;;;;;;;4.80;1.92;;;17.60;99.90;;;;;;5075676;28;20032;-59
2023/06/03 07:56:47;;;;;;;7.53;3.67;;;17.70;99.90;;;;;;5076118;28;20021;-59
2023/06/03 07:59:16;;;;;;;9.00;3.47;;;17.60;99.90;;;;;;5060219;28;20484;-60
2023/06/03 08:01:43;;;;;;;6.07;3.08;;;17.60;99.90;;;;;;5078244;28;20020;-59
2023/06/03 08:04:31;;;;;;;8.07;3.97;;;17.60;99.90;;;;;;5079496;28;20119;-59
2023/06/03 08:07:02;;;;;;;6.85;4.03;;;17.60;99.90;;;;;;5061825;28;20481;-60
2023/06/03 08:09:36;;;;;;;8.90;3.70;;;17.50;99.90;;;;;;5089809;28;20070;-60
2023/06/03 08:12:06;;;;;;;6.65;2.38;;;17.50;99.90;;;;;;5083788;28;20434;-58
2023/06/03 08:14:38;;;;;;;6.30;1.90;;;17.50;99.90;;;;;;5083698;28;20085;-58
2023/06/03 08:17:13;;;;;;;7.13;2.20;;;17.40;99.90;;;;;;5082258;28;20061;-60
2023/06/03 08:19:45;;;;;;;7.50;2.88;;;17.40;99.90;;;;;;5095010;28;20062;-58
2023/06/03 08:22:30;;;;;;;86.30;14.85;;;17.40;99.90;;;;;;5089390;28;20024;-58
2023/06/03 08:24:57;;;;;;;6.95;3.08;;;17.40;99.90;;;;;;5093434;28;20032;-51
2023/06/03 08:27:25;;;;;;;5.57;2.30;;;17.50;99.90;;;;;;5067475;28;20675;-53
2023/06/03 08:29:52;;;;;;;14.13;4.22;;;17.60;99.90;;;;;;5054418;28;20047;-54
2023/06/03 08:32:19;;;;;;;18.58;5.20;;;17.60;99.90;;;;;;5080336;28;20008;-53
2023/06/03 08:34:47;;;;;;;7.65;3.35;;;17.70;99.90;;;;;;5088485;28;20028;-56
2023/06/03 08:37:14;;;;;;;9.60;2.75;;;17.70;99.90;;;;;;5075130;28;20050;-51
2023/06/03 08:39:41;;;;;;;16.13;4.40;;;17.70;99.90;;;;;;5076670;28;20039;-58
2023/06/03 08:42:11;;;;;;;15.68;6.00;;;17.70;99.90;;;;;;5075003;28;20017;-59
2023/06/03 08:44:49;;;;;;;13.45;4.07;;;17.60;99.90;;;;;;5061616;28;20169;-50
2023/06/03 08:47:33;;;;;;;4.93;2.63;;;17.60;99.90;;;;;;5083825;28;20033;-59
2023/06/03 08:50:07;;;;;;;8.90;3.28;;;17.50;99.90;;;;;;5076432;28;20017;-59
2023/06/03 08:52:39;;;;;;;11.70;3.72;;;17.50;99.90;;;;;;5086534;28;20043;-59
2023/06/03 08:55:08;;;;;;;8.10;3.90;;;17.50;99.90;;;;;;5096844;28;20028;-59
2023/06/03 08:57:43;;;;;;;7.18;3.50;;;17.50;99.90;;;;;;5095010;28;20016;-59
2023/06/03 09:00:12;;;;;;;13.98;4.93;;;17.40;99.90;;;;;;5083886;28;20084;-56
2023/06/03 09:02:39;;;;;;;7.68;3.65;;;17.40;99.90;;;;;;5066483;28;20050;-56
2023/06/03 09:05:08;;;;;;;8.27;3.92;;;17.30;99.90;;;;;;5080953;28;20051;-58
2023/06/03 09:07:37;;;;;;;9.27;3.78;;;17.30;99.90;;;;;;5084960;28;20085;-56
2023/06/03 09:10:07;;;;;;;8.85;3.80;;;17.20;99.90;;;;;;5085572;28;20035;-59
2023/06/03 09:12:35;;;;;;;7.97;3.47;;;17.10;99.90;;;;;;5091028;28;20040;-49
2023/06/03 09:15:04;;;;;;;10.52;5.40;;;17.00;99.90;;;;;;5088505;28;20078;-59
2023/06/03 09:17:31;;;;;;;16.55;8.88;;;17.00;99.90;;;;;;5066144;28;20017;-59
2023/06/03 09:20:01;;;;;;;12.80;4.97;;;17.00;99.90;;;;;;5055830;28;20116;-59
2023/06/03 09:22:30;;;;;;;10.00;4.15;;;17.10;99.90;;;;;;5081248;28;20024;-58
2023/06/03 09:24:57;;;;;;;13.30;4.25;;;17.20;99.90;;;;;;5052491;28;20043;-58
2023/06/03 09:27:24;;;;;;;8.95;3.63;;;17.20;99.90;;;;;;5070861;28;20028;-59
2023/06/03 09:29:53;;;;;;;11.63;4.38;;;17.30;99.90;;;;;;5070415;28;20028;-58
2023/06/03 09:32:21;;;;;;;10.52;3.65;;;17.30;99.90;;;;;;5073421;28;20099;-58
2023/06/03 09:34:49;;;;;;;10.57;4.13;;;17.30;99.90;;;;;;5074155;28;20512;-59
2023/06/03 09:37:16;;;;;;;9.13;4.35;;;17.30;99.90;;;;;;5075621;28;20840;-58
2023/06/03 09:39:43;;;;;;;12.68;4.68;;;17.30;99.90;;;;;;5081718;28;21338;-58
2023/06/03 09:42:11;;;;;;;12.60;3.70;;;17.30;99.90;;;;;;5078041;28;20093;-58
2023/06/03 09:44:45;;;;;;;9.40;3.70;;;17.30;99.90;;;;;;5071003;28;20041;-57
2023/06/03 09:47:12;;;;;;;;;;;17.40;99.90;;;;;;5057718;28;20111;-58
2023/06/03 09:49:40;;;;;;;8.00;4.13;;;17.40;99.90;;;;;;5078175;28;19916;-58
2023/06/03 09:52:09;;;;;;;9.65;3.50;;;17.40;99.90;;;;;;5055501;28;20119;-59
2023/06/03 09:54:37;;;;;;;11.10;3.47;;;17.40;99.90;;;;;;5073098;28;20031;-51
2023/06/03 09:57:13;;;;;;;14.63;3.80;;;17.30;99.90;;;;;;5080053;28;20048;-58
2023/06/03 09:59:43;;;;;;;14.32;3.20;;;17.30;99.90;;;;;;5077775;28;20039;-58
2023/06/03 10:02:11;;;;;;;9.40;3.00;;;17.30;99.90;;;;;;5057900;28;20027;-59
2023/06/03 10:04:46;;;;;;;9.73;3.25;;;17.30;99.90;;;;;;5072030;28;20036;-58
2023/06/03 10:07:16;;;;;;;7.55;3.00;;;17.30;99.90;;;;;;5072550;28;20591;-58
2023/06/03 10:09:46;;;;;;;8.52;2.70;;;17.30;99.90;;;;;;5071979;28;20054;-58
2023/06/03 10:12:29;;;;;;;6.40;2.30;;;17.30;99.90;;;;;;5061458;28;20385;-59
2023/06/03 10:15:00;;;;;;;11.70;3.17;;;17.30;99.90;;;;;;5080984;28;20024;-58
2023/06/03 10:17:28;;;;;;;6.93;2.22;;;17.30;99.90;;;;;;5071059;28;20081;-59
2023/06/03 10:19:55;;;;;;;10.93;2.80;;;17.30;99.90;;;;;;5070627;28;20033;-59
2023/06/03 10:22:26;;;;;;;6.13;2.50;;;17.30;99.90;;;;;;5069280;28;20504;-58
2023/06/03 10:24:56;;;;;;;10.75;2.42;;;17.30;99.90;;;;;;5050832;28;20040;-59
2023/06/03 10:27:24;;;;;;;11.27;2.60;;;17.20;99.90;;;;;;5053107;28;20047;-59
2023/06/03 10:29:56;;;;;;;4.57;2.60;;;17.20;99.90;;;;;;5076282;28;20055;-59
2023/06/03 10:32:24;;;;;;;17.98;3.38;;;17.20;99.90;;;;;;5069298;28;20858;-59
2023/06/03 10:34:52;;;;;;;7.75;3.03;;;17.20;99.90;;;;;;5079381;28;20032;-59
2023/06/03 10:37:22;;;;;;;8.70;2.40;;;17.20;99.90;;;;;;5070470;28;20028;-59
2023/06/03 10:39:50;;;;;;;13.98;3.17;;;17.20;99.90;;;;;;5070111;28;20114;-59
2023/06/03 10:42:18;;;;;;;7.05;2.58;;;17.20;99.90;;;;;;5070578;28;20028;-59
2023/06/03 10:44:46;;;;;;;8.50;2.80;;;17.20;99.90;;;;;;5053020;28;20075;-59
2023/06/03 10:47:22;;;;;;;12.88;3.60;;;17.20;99.90;;;;;;5074944;28;20012;-63
2023/06/03 10:50:30;;;;;;;8.15;2.78;;;17.20;99.90;;;;;;5084356;28;20376;-60
2023/06/03 10:53:06;;;;;;;18.45;3.30;;;17.20;99.90;;;;;;5073829;28;20040;-59
2023/06/03 10:55:42;;;;;;;12.27;2.75;;;17.10;99.90;;;;;;5053494;28;20028;-59
2023/06/03 10:58:25;;;;;;;11.18;3.40;;;17.10;99.90;;;;;;5067707;28;20401;-59
2023/06/03 11:01:03;;;;;;;9.40;2.25;;;17.10;99.90;;;;;;5077012;28;20021;-60
2023/06/03 11:03:32;;;;;;;8.68;2.92;;;17.10;99.90;;;;;;5052216;28;20569;-59
2023/06/03 11:06:28;;;;;;;11.52;2.83;;;17.10;99.90;;;;;;5070769;28;20028;-59
2023/06/03 11:09:04;;;;;;;8.80;3.53;;;17.10;99.90;;;;;;5076384;28;20052;-60
2023/06/03 11:12:03;;;;;;;6.50;2.42;;;17.10;99.90;;;;;;5050155;28;20075;-60
2023/06/03 11:14:41;;;;;;;12.48;2.92;;;17.10;99.90;;;;;;5052129;28;20055;-59
2023/06/03 11:17:12;;;;;;;9.82;2.80;;;17.10;99.90;;;;;;5067235;28;20024;-55
2023/06/03 11:19:51;;;;;;;13.00;2.97;;;17.10;99.90;;;;;;5057345;28;20035;-59
2023/06/03 11:22:30;;;;;;;7.05;2.55;;;17.10;99.90;;;;;;5076268;28;20021;-59
2023/06/03 11:24:59;;;;;;;13.85;2.90;;;17.10;99.90;;;;;;5055164;28;20040;-59
2023/06/03 11:27:28;;;;;;;9.38;3.10;;;17.10;99.90;;;;;;5078769;28;20028;-59
2023/06/03 11:30:01;;;;;;;9.50;3.75;;;17.10;99.90;;;;;;5055816;28;20029;-59
2023/06/03 11:32:36;;;;;;;14.63;3.47;;;17.10;99.90;;;;;;5070787;28;20024;-59
2023/06/03 11:35:06;;;;;;;5.95;2.83;;;17.10;99.90;;;;;;5080817;28;20032;-59
2023/06/03 11:37:49;;;;;;;9.10;2.92;;;17.00;99.90;;;;;;5073583;28;20058;-59
2023/06/03 11:40:19;;;;;;;7.65;2.65;;;17.00;99.90;;;;;;5083119;28;20022;-59
2023/06/03 11:42:54;;;;;;;12.15;3.67;;;17.00;99.90;;;;;;5080656;28;20035;-59
2023/06/03 11:45:21;;;;;;;12.30;3.10;;;17.00;99.90;;;;;;5085804;28;20032;-60
2023/06/03 11:47:52;;;;;;;11.10;3.65;;;17.10;99.90;;;;;;5082992;28;20115;-59
2023/06/03 11:50:20;;;;;;;13.50;3.55;;;17.00;99.90;;;;;;5074516;28;20028;-61
2023/06/03 11:52:48;;;;;;;12.38;3.40;;;17.00;99.90;;;;;;5075153;28;20137;-59
2023/06/03 11:55:31;;;;;;;14.07;3.42;;;17.00;99.90;;;;;;5102845;28;20032;-60
2023/06/03 11:58:14;;;;;;;13.50;3.60;;;17.00;99.90;;;;;;5072266;28;20019;-60
2023/06/03 12:00:41;;;;;;;13.02;3.33;;;17.00;99.90;;;;;;5072463;28;20556;-59
2023/06/03 12:03:16;;;;;;;10.50;3.20;;;17.10;99.90;;;;;;5053347;28;20039;-59
2023/06/03 12:06:03;;;;;;;8.60;3.30;;;17.10;99.90;;;;;;5079060;28;20537;-60
2023/06/03 12:08:47;;;;;;;11.20;2.83;;;17.20;99.90;;;;;;5078087;28;20032;-59
2023/06/03 12:11:40;;;;;;;8.93;3.22;;;17.20;99.90;;;;;;5075942;28;20067;-59
2023/06/03 12:14:08;;;;;;;11.30;2.63;;;17.20;99.90;;;;;;5081952;28;20043;-60
2023/06/03 12:16:37;;;;;;;10.00;2.50;;;17.20;99.90;;;;;;5070138;28;20016;-61
2023/06/03 12:19:07;;;;;;;16.23;2.53;;;17.20;99.90;;;;;;5071916;28;20030;-58
2023/06/03 12:21:36;;;;;;;13.77;2.58;;;17.30;99.90;;;;;;5079748;28;20027;-58
2023/06/03 12:24:13;;;;;;;9.75;3.15;;;17.30;99.90;;;;;;5070692;28;20044;-60
2023/06/03 12:26:41;;;;;;;8.45;2.63;;;17.20;99.90;;;;;;5081846;28;20089;-58
2023/06/03 12:29:10;;;;;;;8.80;2.33;;;17.20;99.90;;;;;;5076692;28;20028;-58
2023/06/03 12:31:38;;;;;;;12.13;2.47;;;17.20;99.90;;;;;;5048517;28;20031;-60
2023/06/03 12:34:05;;;;;;;8.77;1.98;;;17.20;99.90;;;;;;5068447;28;20493;-60
2023/06/03 12:36:49;;;;;;;7.32;1.67;;;17.20;99.90;;;;;;5079003;28;20023;-59
2023/06/03 12:39:18;;;;;;;6.85;1.75;;;17.20;99.90;;;;;;5076468;28;20024;-59
2023/06/03 12:41:52;;;;;;;15.68;2.90;;;17.20;99.90;;;;;;5076134;28;20101;-59
2023/06/03 12:44:19;;;;;;;9.77;2.35;;;17.20;99.90;;;;;;5067103;28;20032;-59
2023/06/03 12:47:04;;;;;;;7.95;2.08;;;17.20;99.90;;;;;;5066163;28;20199;-59
2023/06/03 12:49:31;;;;;;;6.70;2.13;;;17.10;99.90;;;;;;5067085;28;20493;-59
2023/06/03 12:52:13;;;;;;;14.98;2.72;;;17.10;99.90;;;;;;5065724;28;20440;-59
2023/06/03 12:54:41;;;;;;;12.80;2.90;;;17.10;99.90;;;;;;5067971;28;20042;-58
2023/06/03 12:57:09;;;;;;;11.43;2.53;;;17.10;99.90;;;;;;5069701;28;20047;-59
2023/06/03 12:59:57;;;;;;;11.95;2.92;;;17.10;99.90;;;;;;5082785;28;20703;-60